7PA7 weather

CLOSED One Montgomery Plaza Heliport
Norristown, Pennsylvania, United States

Public forecast

Using degrees Fahrenheit for public forecast. Weather courtesy of forecast.io.

METAR (pilot weather report)

Closest report is Wings Field, 3.9 nm (7.2 km) ENE. Retrieved 2019/07/21 20:35 UTC (0 seconds ago):

KLOM 212035Z AUTO 28006KT 10SM SCT049 SCT055 35/24 A2981 RMK AO2 T03550237

TAF (pilot weather forecast)

Closest forecast is Philadelphia International Airport, 15.4 nm (28.5 km) SSE. Retrieved 2019/07/21 18:27 UTC (2 hours ago):

TAF KPHL 211720Z 2118/2224 27009KT P6SM SCT150 FM212200 27009KT P6SM VCTS SCT050CB TEMPO 2123/2202 3SM -TSRA BKN050CB FM220300 VRB04KT P6SM BKN200 FM222000 24010KT 4SM +SHRA VCTS OVC070CB